createdAt,value
2018-06-01T00:00:20.124Z,4.13
2018-06-01T00:02:49.104Z,3.47
2018-06-01T00:05:17.076Z,6.60
2018-06-01T00:07:44.472Z,5.27
2018-06-01T00:10:11.800Z,4.80
2018-06-01T00:12:39.169Z,3.07
2018-06-01T00:15:05.781Z,3.97
2018-06-01T00:17:33.164Z,3.83
2018-06-01T00:20:00.557Z,4.67
2018-06-01T00:22:28.960Z,3.37
2018-06-01T00:24:56.304Z,3.60
2018-06-01T00:27:23.620Z,3.10
2018-06-01T00:29:52.608Z,3.37
2018-06-01T00:32:19.941Z,4.80
2018-06-01T00:34:47.320Z,4.33
2018-06-01T00:37:16.765Z,3.00
2018-06-01T00:39:44.052Z,7.13
2018-06-01T00:42:12.429Z,5.13
2018-06-01T00:44:40.788Z,3.07
2018-06-01T00:47:10.212Z,6.23
2018-06-01T00:49:36.761Z,6.33
2018-06-01T00:52:04.368Z,4.43
2018-06-01T00:54:44.307Z,5.77
2018-06-01T00:57:10.932Z,4.13
2018-06-01T00:59:37.474Z,6.53
2018-06-01T01:02:05.574Z,4.30
2018-06-01T01:04:33.244Z,4.50
2018-06-01T01:07:01.633Z,4.93
2018-06-01T01:09:31.049Z,4.80
2018-06-01T01:11:58.421Z,5.63
2018-06-01T01:14:25.065Z,7.53
2018-06-01T01:16:52.433Z,5.80
2018-06-01T01:19:19.825Z,8.47
2018-06-01T01:21:46.480Z,4.27
2018-06-01T01:24:13.809Z,4.27
2018-06-01T01:26:40.462Z,5.90
2018-06-01T01:29:07.821Z,5.33
2018-06-01T01:31:35.212Z,7.70
2018-06-01T01:34:04.109Z,5.80
2018-06-01T01:36:31.524Z,10.03
2018-06-01T01:38:58.952Z,7.57
2018-06-01T01:41:26.329Z,6.63
2018-06-01T01:43:53.672Z,4.90
2018-06-01T01:46:22.072Z,6.87
2018-06-01T01:48:49.745Z,5.87
2018-06-01T01:51:18.156Z,6.40
2018-06-01T01:53:46.529Z,6.13
2018-06-01T01:56:13.848Z,6.37
2018-06-01T01:58:41.562Z,5.83
2018-06-01T02:01:09.141Z,5.87
2018-06-01T02:03:37.429Z,5.17
2018-06-01T02:06:04.826Z,5.77
2018-06-01T02:08:34.324Z,5.43
2018-06-01T02:11:04.597Z,7.13
2018-06-01T02:13:33.041Z,4.20
2018-06-01T02:16:01.088Z,4.47
2018-06-01T02:18:28.376Z,6.50
2018-06-01T02:20:56.772Z,4.97
2018-06-01T02:23:25.166Z,5.50
2018-06-01T02:25:53.240Z,5.93
2018-06-01T02:28:19.952Z,4.90
2018-06-01T02:30:49.426Z,3.83
2018-06-01T02:33:17.282Z,5.17
2018-06-01T02:35:44.617Z,4.07
2018-06-01T02:38:11.873Z,8.97
2018-06-01T02:40:40.127Z,3.80
2018-06-01T02:43:09.124Z,4.47
2018-06-01T02:45:35.718Z,6.43
2018-06-01T02:48:03.063Z,3.40
2018-06-01T02:50:30.396Z,3.87
2018-06-01T02:53:03.692Z,12.63
2018-06-01T02:55:31.321Z,4.90
2018-06-01T02:58:01.649Z,5.17
2018-06-01T03:00:34.113Z,4.13
2018-06-01T03:03:04.161Z,5.83
2018-06-01T03:05:31.504Z,6.30
2018-06-01T03:08:00.121Z,4.47
2018-06-01T03:10:27.412Z,5.70
2018-06-01T03:12:56.683Z,5.67
2018-06-01T03:15:32.242Z,5.17
2018-06-01T03:18:00.676Z,5.27
2018-06-01T03:20:29.048Z,5.97
2018-06-01T03:22:56.709Z,5.23
2018-06-01T03:25:23.347Z,8.17
2018-06-01T03:28:00.240Z,5.17
2018-06-01T03:30:26.945Z,6.30
2018-06-01T03:32:53.568Z,9.30
2018-06-01T03:35:21.713Z,6.70
2018-06-01T03:37:49.100Z,7.03
2018-06-01T03:40:15.739Z,6.93
2018-06-01T03:42:43.106Z,8.10
2018-06-01T03:45:11.402Z,6.20
2018-06-01T03:47:43.475Z,7.27
2018-06-01T03:50:15.957Z,9.00
2018-06-01T03:52:43.324Z,6.80
2018-06-01T03:55:11.772Z,6.97
2018-06-01T03:57:42.768Z,7.57
2018-06-01T04:00:11.364Z,6.67
2018-06-01T04:02:40.989Z,8.90
2018-06-01T04:05:08.313Z,6.97
2018-06-01T04:07:46.476Z,6.80
2018-06-01T04:10:14.818Z,9.20
2018-06-01T04:12:49.389Z,6.43
2018-06-01T04:15:18.732Z,6.40
2018-06-01T04:17:45.277Z,8.10
2018-06-01T04:20:19.591Z,8.93
2018-06-01T04:22:52.077Z,8.20
2018-06-01T04:25:23.224Z,6.93
2018-06-01T04:27:51.184Z,11.13
2018-06-01T04:30:19.548Z,6.33
2018-06-01T04:32:46.160Z,10.57
2018-06-01T04:35:14.245Z,9.83
2018-06-01T04:37:41.003Z,10.20
2018-06-01T04:40:08.362Z,10.43
2018-06-01T04:42:34.928Z,8.97
2018-06-01T04:45:01.560Z,12.00
2018-06-01T04:47:28.930Z,8.60
2018-06-01T04:49:56.444Z,8.77
2018-06-01T04:52:26.964Z,11.70
2018-06-01T04:55:04.480Z,11.07
2018-06-01T04:57:33.038Z,7.73
2018-06-01T04:59:59.620Z,11.57
2018-06-01T05:02:29.409Z,8.33
2018-06-01T05:04:56.786Z,9.03
2018-06-01T05:07:23.976Z,10.30
2018-06-01T05:09:54.387Z,7.80
2018-06-01T05:12:21.729Z,8.70
2018-06-01T05:14:51.316Z,9.40
2018-06-01T05:17:18.636Z,13.10
2018-06-01T05:19:45.281Z,11.10
2018-06-01T05:22:11.845Z,10.10
2018-06-01T05:24:40.213Z,12.50
2018-06-01T05:27:12.732Z,12.23
2018-06-01T05:29:44.476Z,9.50
2018-06-01T05:32:14.185Z,15.10
2018-06-01T05:34:41.568Z,15.50
2018-06-01T05:37:10.152Z,19.80
2018-06-01T05:39:39.680Z,11.33
2018-06-01T05:42:06.341Z,11.60
2018-06-01T05:44:35.349Z,14.33
2018-06-01T05:47:04.273Z,11.60
2018-06-01T05:49:33.260Z,15.73
2018-06-01T05:52:01.861Z,12.13
2018-06-01T05:54:35.102Z,15.03
2018-06-01T05:57:09.977Z,13.90
2018-06-01T05:59:37.565Z,10.70
2018-06-01T06:02:05.972Z,10.90
2018-06-01T06:04:36.368Z,13.13
2018-06-01T06:07:05.298Z,11.20
2018-06-01T06:09:33.285Z,14.33
2018-06-01T06:12:03.407Z,15.50
2018-06-01T06:14:33.748Z,11.00
2018-06-01T06:17:01.115Z,16.43
2018-06-01T06:19:27.669Z,15.50
2018-06-01T06:21:55.021Z,10.90
2018-06-01T06:24:22.697Z,11.13
2018-06-01T06:26:49.266Z,11.17
2018-06-01T06:29:15.903Z,14.43
2018-06-01T06:31:53.029Z,14.37
2018-06-01T06:34:21.385Z,11.73
2018-06-01T06:36:48.684Z,12.07
2018-06-01T06:39:18.877Z,11.77
2018-06-01T06:41:50.365Z,12.93
2018-06-01T06:44:23.909Z,13.10
2018-06-01T06:46:53.383Z,11.77
2018-06-01T06:49:24.550Z,16.10
2018-06-01T06:51:53.128Z,9.03
2018-06-01T06:54:30.324Z,15.03
2018-06-01T06:57:03.737Z,9.37
2018-06-01T06:59:31.097Z,9.70
2018-06-01T07:01:59.591Z,11.73
2018-06-01T07:04:26.197Z,9.53
2018-06-01T07:06:53.932Z,9.10
2018-06-01T07:09:22.901Z,9.03
2018-06-01T07:11:49.577Z,6.43
2018-06-01T07:14:17.056Z,6.13
2018-06-01T07:16:49.533Z,7.80
2018-06-01T07:19:23.769Z,8.47
2018-06-01T07:21:50.564Z,8.00
2018-06-01T07:24:22.089Z,8.90
2018-06-01T07:26:49.511Z,7.07
2018-06-01T07:29:22.058Z,5.70
2018-06-01T07:31:53.520Z,6.10
2018-06-01T07:34:20.201Z,6.40
2018-06-01T07:36:47.637Z,8.13
2018-06-01T07:39:15.000Z,9.30
2018-06-01T07:41:42.677Z,9.60
2018-06-01T07:44:09.241Z,9.80
2018-06-01T07:46:39.353Z,7.77
2018-06-01T07:49:12.004Z,7.87
2018-06-01T07:51:43.297Z,6.70
2018-06-01T07:54:10.307Z,5.37
2018-06-01T07:56:51.142Z,5.93
2018-06-01T07:59:21.142Z,5.80
2018-06-01T08:01:50.159Z,5.33
2018-06-01T08:04:17.547Z,6.57
2018-06-01T08:06:46.849Z,4.93
2018-06-01T08:09:14.866Z,5.07
2018-06-01T08:11:42.103Z,5.97
2018-06-01T08:14:08.669Z,8.43
2018-06-01T08:16:44.196Z,5.13
2018-06-01T08:19:14.534Z,6.33
2018-06-01T08:21:41.187Z,4.33
2018-06-01T08:24:07.756Z,15.17
2018-06-01T08:26:34.376Z,8.93
2018-06-01T08:29:02.988Z,6.47
2018-06-01T08:31:36.444Z,6.00
2018-06-01T08:34:06.012Z,5.27
2018-06-01T08:36:32.585Z,5.50
2018-06-01T08:39:24.293Z,8.07
2018-06-01T08:41:51.673Z,8.00
2018-06-01T08:44:19.041Z,9.33
2018-06-01T08:46:48.656Z,5.93
2018-06-01T08:49:16.124Z,9.80
2018-06-01T08:51:42.788Z,5.93
2018-06-01T08:54:17.608Z,4.87
2018-06-01T08:56:51.050Z,5.63
2018-06-01T08:59:18.726Z,5.80
2018-06-01T09:01:48.125Z,9.27
2018-06-01T09:04:14.769Z,7.20
2018-06-01T09:06:44.603Z,5.27
2018-06-01T09:09:11.162Z,7.90
2018-06-01T09:11:40.881Z,7.33
2018-06-01T09:14:08.537Z,4.10
2018-06-01T09:16:36.212Z,5.57
2018-06-01T09:19:06.569Z,4.30
2018-06-01T09:21:34.120Z,5.53
2018-06-01T09:24:00.793Z,7.03
2018-06-01T09:26:27.415Z,7.43
2018-06-01T09:28:53.989Z,6.57
2018-06-01T09:31:20.540Z,7.70
2018-06-01T09:33:47.181Z,5.83
2018-06-01T09:36:17.685Z,6.50
2018-06-01T09:38:45.044Z,13.10
2018-06-01T09:41:16.449Z,11.13
2018-06-01T09:43:44.829Z,6.03
2018-06-01T09:46:11.569Z,6.17
2018-06-01T09:48:38.153Z,5.27
2018-06-01T09:51:04.789Z,5.00
2018-06-01T09:53:32.448Z,3.80
2018-06-01T09:55:59.204Z,6.33
2018-06-01T09:58:35.095Z,4.73
2018-06-01T10:01:07.784Z,4.40
2018-06-01T10:03:34.417Z,3.80
2018-06-01T10:06:01.061Z,6.33
2018-06-01T10:08:27.737Z,4.77
2018-06-01T10:10:54.300Z,5.50
2018-06-01T10:13:21.116Z,5.43
2018-06-01T10:15:49.517Z,7.80
2018-06-01T10:18:17.813Z,6.17
2018-06-01T10:20:45.936Z,4.77
2018-06-01T10:23:13.352Z,3.60
2018-06-01T10:25:39.992Z,5.27
2018-06-01T10:28:06.748Z,5.37
2018-06-01T10:30:33.505Z,5.33
2018-06-01T10:33:04.025Z,4.80
2018-06-01T10:35:31.722Z,3.73
2018-06-01T10:38:03.320Z,4.70
2018-06-01T10:40:30.060Z,6.80
2018-06-01T10:42:56.616Z,3.77
2018-06-01T10:45:24.246Z,4.60
2018-06-01T10:47:51.017Z,3.73
2018-06-01T10:50:18.680Z,4.57
2018-06-01T10:52:45.339Z,5.40
2018-06-01T10:55:12.752Z,6.33
2018-06-01T10:57:39.353Z,4.80
2018-06-01T11:00:06.045Z,4.70
2018-06-01T11:02:32.693Z,7.00
2018-06-01T11:05:00.124Z,4.13
2018-06-01T11:07:26.868Z,7.73
2018-06-01T11:09:53.628Z,4.50
2018-06-01T11:12:20.376Z,6.67
2018-06-01T11:14:47.128Z,3.27
2018-06-01T11:17:13.809Z,3.70
2018-06-01T11:19:41.144Z,6.10
2018-06-01T11:22:07.904Z,8.03
2018-06-01T11:24:35.717Z,9.83
2018-06-01T11:27:02.369Z,5.60
2018-06-01T11:29:29.080Z,3.40
2018-06-01T11:31:55.760Z,5.57
2018-06-01T11:34:22.472Z,7.00
2018-06-01T11:36:49.848Z,3.10
2018-06-01T11:39:16.604Z,4.17
2018-06-01T11:41:43.972Z,4.93
2018-06-01T11:44:10.724Z,2.60
2018-06-01T11:46:37.464Z,3.30
2018-06-01T11:49:04.806Z,4.00
2018-06-01T11:51:31.508Z,6.87
2018-06-01T11:53:58.144Z,4.30
2018-06-01T11:56:24.840Z,5.40
2018-06-01T11:58:52.577Z,2.77
2018-06-01T12:01:19.159Z,3.30
2018-06-01T12:03:45.808Z,3.23
2018-06-01T12:06:12.515Z,3.43
2018-06-01T12:08:39.480Z,4.20
2018-06-01T12:11:06.267Z,2.43
2018-06-01T12:13:33.833Z,3.43
2018-06-01T12:16:01.600Z,4.77
2018-06-01T12:18:28.917Z,7.27
2018-06-01T12:20:55.804Z,4.40
2018-06-01T12:23:22.476Z,2.50
2018-06-01T12:25:49.218Z,2.53
2018-06-01T12:28:16.668Z,3.10
2018-06-01T12:30:43.425Z,5.87
2018-06-01T12:33:10.181Z,5.87
2018-06-01T12:35:38.033Z,3.17
2018-06-01T12:38:05.524Z,3.30
2018-06-01T12:40:32.915Z,6.43
2018-06-01T12:42:59.654Z,4.93
2018-06-01T12:45:26.324Z,2.60
2018-06-01T12:47:55.693Z,3.17
2018-06-01T12:50:22.368Z,3.97
2018-06-01T12:52:49.115Z,2.90
2018-06-01T12:55:15.905Z,6.60
2018-06-01T12:57:43.300Z,4.60
2018-06-01T13:00:10.808Z,3.17
2018-06-01T13:02:38.386Z,2.60
2018-06-01T13:05:05.172Z,2.87
2018-06-01T13:07:31.808Z,2.80
2018-06-01T13:10:00.448Z,2.83
2018-06-01T13:12:27.585Z,3.70
2018-06-01T13:14:55.020Z,5.30
2018-06-01T13:17:21.776Z,4.60
2018-06-01T13:19:49.126Z,4.60
2018-06-01T13:22:16.397Z,3.80
2018-06-01T13:24:43.136Z,2.53
2018-06-01T13:27:09.916Z,5.07
2018-06-01T13:29:36.676Z,1.97
2018-06-01T13:32:06.379Z,3.60
2018-06-01T13:34:35.079Z,4.53
2018-06-01T13:37:10.423Z,3.70
2018-06-01T13:39:38.940Z,5.43
2018-06-01T13:42:05.795Z,5.37
2018-06-01T13:44:32.437Z,3.30
2018-06-01T13:46:59.213Z,2.90
2018-06-01T13:49:25.957Z,3.90
2018-06-01T13:51:54.330Z,6.73
2018-06-01T13:54:21.898Z,6.40
2018-06-01T13:56:48.577Z,12.63
2018-06-01T13:59:15.325Z,7.90
2018-06-01T14:01:43.720Z,6.50
2018-06-01T14:04:11.475Z,6.00
2018-06-01T14:06:38.042Z,4.33
2018-06-01T14:09:05.104Z,10.03
2018-06-01T14:11:31.754Z,4.90
2018-06-01T14:14:02.168Z,4.40
2018-06-01T14:16:28.921Z,4.33
2018-06-01T14:18:56.460Z,5.60
2018-06-01T14:21:24.101Z,3.63
2018-06-01T14:23:50.909Z,8.10
2018-06-01T14:26:17.581Z,5.53
2018-06-01T14:28:44.136Z,5.00
2018-06-01T14:31:10.961Z,2.90
2018-06-01T14:33:38.282Z,3.40
2018-06-01T14:36:05.088Z,5.57
2018-06-01T14:38:32.068Z,3.97
2018-06-01T14:41:02.249Z,4.70
2018-06-01T14:43:29.004Z,4.90
2018-06-01T14:45:56.808Z,2.97
2018-06-01T14:48:23.464Z,5.10
2018-06-01T14:50:51.090Z,3.60
2018-06-01T14:53:17.909Z,4.60
2018-06-01T14:55:44.536Z,2.60
2018-06-01T14:58:11.281Z,2.50
2018-06-01T15:00:38.032Z,4.07
2018-06-01T15:03:04.789Z,4.37
2018-06-01T15:05:31.452Z,10.40
2018-06-01T15:07:59.022Z,2.90
2018-06-01T15:10:26.616Z,2.90
2018-06-01T15:12:55.293Z,2.60
2018-06-01T15:15:24.021Z,3.20
2018-06-01T15:17:50.796Z,2.83
2018-06-01T15:20:18.360Z,4.50
2018-06-01T15:22:48.881Z,3.07
2018-06-01T15:25:15.603Z,7.20
2018-06-01T15:27:42.344Z,3.13
2018-06-01T15:30:10.465Z,2.37
2018-06-01T15:32:37.175Z,4.00
2018-06-01T15:35:03.944Z,2.13
2018-06-01T15:37:30.801Z,1.90
2018-06-01T15:39:57.552Z,1.67
2018-06-01T15:42:24.953Z,1.70
2018-06-01T15:44:52.929Z,1.60
2018-06-01T15:47:21.283Z,1.90
2018-06-01T15:49:48.011Z,2.70
2018-06-01T15:52:14.680Z,2.10
2018-06-01T15:54:42.036Z,5.33
2018-06-01T15:57:08.695Z,4.60
2018-06-01T15:59:35.412Z,3.80
2018-06-01T16:02:02.279Z,3.03
2018-06-01T16:04:29.056Z,2.77
2018-06-01T16:06:55.733Z,3.17
2018-06-01T16:09:23.242Z,3.70
2018-06-01T16:11:56.467Z,2.40
2018-06-01T16:14:24.174Z,3.83
2018-06-01T16:16:50.804Z,2.93
2018-06-01T16:19:17.561Z,3.80
2018-06-01T16:21:45.103Z,2.37
2018-06-01T16:24:11.993Z,2.63
2018-06-01T16:26:38.745Z,3.67
2018-06-01T16:29:05.441Z,4.70
2018-06-01T16:31:32.986Z,2.83
2018-06-01T16:33:59.776Z,2.30
2018-06-01T16:36:26.578Z,3.30
2018-06-01T16:38:53.333Z,3.93
2018-06-01T16:41:20.097Z,4.00
2018-06-01T16:43:46.829Z,2.43
2018-06-01T16:46:13.532Z,2.60
2018-06-01T16:48:40.344Z,2.17
2018-06-01T16:51:09.043Z,2.50
2018-06-01T16:53:35.680Z,2.73
2018-06-01T16:56:03.689Z,2.53
2018-06-01T16:58:30.441Z,2.80
2018-06-01T17:00:58.160Z,5.43
2018-06-01T17:03:24.993Z,2.73
2018-06-01T17:05:51.792Z,3.00
2018-06-01T17:08:18.465Z,3.73
2018-06-01T17:10:45.927Z,3.13
2018-06-01T17:13:12.892Z,1.50
2018-06-01T17:15:40.637Z,2.03
2018-06-01T17:18:07.253Z,2.23
2018-06-01T17:20:35.107Z,3.57
2018-06-01T17:23:01.948Z,2.60
2018-06-01T17:25:29.241Z,5.77
2018-06-01T17:27:56.496Z,2.70
2018-06-01T17:30:23.952Z,2.07
2018-06-01T17:32:50.706Z,1.53
2018-06-01T17:35:18.445Z,1.30
2018-06-01T17:37:45.133Z,4.83
2018-06-01T17:40:12.382Z,3.80
2018-06-01T17:42:39.163Z,2.53
2018-06-01T17:45:06.582Z,1.90
2018-06-01T17:47:33.376Z,2.93
2018-06-01T17:49:59.917Z,3.83
2018-06-01T17:52:26.570Z,2.37
2018-06-01T17:54:53.284Z,3.53
2018-06-01T17:57:20.664Z,2.03
2018-06-01T17:59:47.327Z,2.30
2018-06-01T18:02:15.313Z,5.53
2018-06-01T18:04:41.960Z,1.57
2018-06-01T18:07:08.725Z,2.20
2018-06-01T18:09:36.240Z,1.80
2018-06-01T18:12:03.509Z,1.73
2018-06-01T18:14:30.280Z,1.73
2018-06-01T18:16:57.063Z,3.03
2018-06-01T18:19:23.812Z,2.50
2018-06-01T18:21:50.558Z,1.90
2018-06-01T18:24:17.232Z,2.30
2018-06-01T18:26:43.983Z,2.13
2018-06-01T18:29:10.693Z,4.10
2018-06-01T18:31:37.340Z,2.80
2018-06-01T18:34:12.528Z,2.03
2018-06-01T18:36:39.188Z,3.00
2018-06-01T18:39:06.931Z,2.17
2018-06-01T18:41:33.733Z,4.20
2018-06-01T18:44:01.612Z,2.77
2018-06-01T18:46:31.893Z,2.93
2018-06-01T18:49:10.652Z,2.90
2018-06-01T18:51:37.421Z,2.07
2018-06-01T18:54:04.176Z,2.63
2018-06-01T18:56:32.552Z,8.10
2018-06-01T18:59:03.118Z,3.70
2018-06-01T19:01:35.519Z,2.27
2018-06-01T19:04:03.263Z,3.30
2018-06-01T19:06:33.508Z,4.30
2018-06-01T19:09:02.327Z,2.73
2018-06-01T19:11:36.433Z,4.03
2018-06-01T19:14:10.818Z,4.97
2018-06-01T19:16:37.512Z,2.60
2018-06-01T19:19:06.097Z,2.63
2018-06-01T19:21:34.788Z,7.30
2018-06-01T19:24:05.431Z,3.10
2018-06-01T19:26:38.117Z,4.50
2018-06-01T19:29:06.725Z,2.17
2018-06-01T19:31:40.246Z,3.73
2018-06-01T19:34:07.650Z,2.50
2018-06-01T19:36:39.163Z,2.27
2018-06-01T19:39:05.833Z,3.27
2018-06-01T19:41:32.454Z,2.60
2018-06-01T19:44:09.508Z,3.83
2018-06-01T19:46:39.897Z,2.87
2018-06-01T19:49:06.568Z,2.60
2018-06-01T19:51:33.217Z,2.50
2018-06-01T19:53:59.940Z,2.23
2018-06-01T19:56:26.697Z,4.30
2018-06-01T19:58:53.363Z,3.20
2018-06-01T20:01:23.696Z,7.53
2018-06-01T20:03:50.337Z,5.93
2018-06-01T20:06:17.105Z,2.50
2018-06-01T20:08:45.580Z,3.60
2018-06-01T20:11:13.260Z,4.07
2018-06-01T20:13:40.436Z,2.63
2018-06-01T20:16:08.822Z,3.13
2018-06-01T20:18:36.593Z,3.90
2018-06-01T20:21:04.097Z,2.67
2018-06-01T20:23:30.800Z,5.57
2018-06-01T20:25:58.584Z,4.10
2018-06-01T20:28:29.140Z,2.67
2018-06-01T20:30:55.815Z,2.30
2018-06-01T20:33:24.485Z,6.30
2018-06-01T20:35:51.236Z,4.03
2018-06-01T20:38:17.980Z,6.00
2018-06-01T20:40:44.732Z,3.13
2018-06-01T20:43:16.207Z,4.10
2018-06-01T20:45:42.957Z,3.30
2018-06-01T20:48:09.704Z,4.87
2018-06-01T20:50:36.452Z,3.50
2018-06-01T20:53:03.201Z,3.10
2018-06-01T20:55:29.960Z,4.40
2018-06-01T20:57:56.708Z,6.00
2018-06-01T21:00:24.117Z,5.37
2018-06-01T21:02:50.849Z,4.50
2018-06-01T21:05:20.681Z,2.80
2018-06-01T21:07:48.108Z,3.13
2018-06-01T21:10:14.933Z,2.60
2018-06-01T21:12:43.573Z,4.50
2018-06-01T21:15:10.333Z,4.13
2018-06-01T21:17:40.366Z,5.10
2018-06-01T21:20:08.761Z,4.73
2018-06-01T21:22:36.138Z,3.70
2018-06-01T21:25:02.889Z,4.10
2018-06-01T21:27:29.616Z,2.70
2018-06-01T21:29:59.748Z,4.50
2018-06-01T21:32:28.361Z,3.17
2018-06-01T21:34:55.723Z,3.80
2018-06-01T21:37:22.474Z,2.83
2018-06-01T21:39:49.139Z,3.30
2018-06-01T21:42:16.896Z,6.07
2018-06-01T21:44:43.654Z,4.73
2018-06-01T21:47:11.415Z,3.80
2018-06-01T21:49:38.099Z,6.20
2018-06-01T21:52:04.764Z,3.57
2018-06-01T21:54:31.484Z,3.93
2018-06-01T21:57:00.305Z,5.00
2018-06-01T21:59:30.730Z,3.23
2018-06-01T22:01:59.216Z,5.03
2018-06-01T22:04:28.636Z,4.03
2018-06-01T22:06:56.129Z,4.87
2018-06-01T22:09:22.851Z,3.53
2018-06-01T22:11:49.419Z,3.73
2018-06-01T22:14:20.791Z,3.30
2018-06-01T22:16:50.181Z,4.03
2018-06-01T22:19:16.976Z,4.93
2018-06-01T22:21:43.696Z,3.33
2018-06-01T22:24:10.443Z,4.73
2018-06-01T22:26:39.348Z,3.70
2018-06-01T22:29:10.085Z,4.80
2018-06-01T22:31:36.836Z,4.10
2018-06-01T22:34:03.624Z,3.40
2018-06-01T22:36:30.364Z,4.57
2018-06-01T22:38:59.040Z,6.57
2018-06-01T22:41:25.814Z,3.77
2018-06-01T22:43:52.541Z,7.27
2018-06-01T22:46:22.180Z,3.73
2018-06-01T22:48:49.013Z,3.70
2018-06-01T22:51:17.612Z,8.20
2018-06-01T22:53:44.284Z,3.53
2018-06-01T22:56:11.945Z,5.43
2018-06-01T22:58:41.973Z,11.70
2018-06-01T23:01:09.649Z,6.33
2018-06-01T23:03:36.322Z,9.17
2018-06-01T23:06:03.664Z,5.63
2018-06-01T23:08:30.424Z,4.07
2018-06-01T23:10:57.692Z,3.93
2018-06-01T23:13:24.352Z,3.80
2018-06-01T23:15:51.069Z,5.07
2018-06-01T23:18:17.736Z,5.70
2018-06-01T23:20:45.508Z,4.73
2018-06-01T23:23:12.188Z,6.97
2018-06-01T23:25:39.532Z,4.90
2018-06-01T23:28:06.284Z,5.17
2018-06-01T23:30:33.769Z,7.90
2018-06-01T23:33:00.500Z,6.17
2018-06-01T23:35:31.686Z,5.53
2018-06-01T23:37:59.446Z,5.83
2018-06-01T23:40:28.141Z,5.13
2018-06-01T23:42:55.804Z,4.03
2018-06-01T23:45:22.625Z,6.10
2018-06-01T23:47:49.335Z,4.80
2018-06-01T23:50:17.084Z,5.80
2018-06-01T23:52:46.300Z,6.47
2018-06-01T23:55:16.741Z,7.10
2018-06-01T23:57:45.437Z,3.50
